Hauptseite
METAR-TAF:

METAR-TAF

Flughäfen :

Lossiemouth, Schottland

RAF Lossiemouth

Breite: 57-43N, Länge: 003-19W, Höhe: 13 m

Beobachtung

Neuester Wetterbericht von vor 48 Minuten, um 00:50 UTC
Wind 3 kt aus Süd
Temperatur -1°C
Luftfeuchtigkeit 80%
Luftdruck 1029 hPa
Sichtweite 10 km oder mehr
keine Wolken unter 1500 m und keine Kumulonimbus oder Gewitterwolken

METAR: EGQS 250050Z 17003KT CAVOK M01/M04 Q1029 BLU

Zeit: 01:38 (01:38 UTC)

Prognose

Neuester Wetterbericht von vor 3 Stunden und 6 Minuten, um 22:32 UTC
Gültige Prognose vom 25 um 00 UTC bis 25 um 18 UTC
Wind 12 kt aus Süd/Südost
Sichtweite 10 km oder mehr
Leicht bewölkt in der Höhe von 3000 ft
Wahrscheinlichkeit 30% :
Zeitweise
vom 25 um 00 UTC bis 25 um 03 UTC
Wind 15 kt aus Süd, Böen bis zu 25 kt

TAF: EGQS 242232Z 2500/2518 16012KT 9999 FEW030 PROB30 TEMPO 2500/2503 17015G25KT

Wetterbeobachtungen und Prognosen von mehr als 4000 Flughäfen (METAR und TAF Bericht).

Die verfügbaren Stationen werden durch gelbe und rote Markierungen auf der Karte dargestellt.

Führen Sie die Maus auf sie, um den Namen der Station zu sehen.

Darauf klicken, um die Beobachtung von Wetterbeobachtungen und Prognosen zu sehen.

Um die Karte zu ändern : klicken Sie auf den grünen Tasten mit einem schwarzen Kreuz Zum Vergrößern, auf den grünen Button mit einem Gedankenstrich zu verkleinern, oder auf die grünen Pfeile für benachbarte Karten.


METAR-TAF: